Terminal Aerodrome Forecast
Issued by NWS

Home | Current Version | Previous Version | Text Only | Print | Product List | Glossary On
Versions: 1 2 3 4 5 6 7 8 9 10 11 12 13 14 15 16 17 18 19 20 21 22 23 24 25 26 27 28 29 30
000
FTUS41 KRNK 301359 AAA
TAFBCB
TAF AMD
KBCB 301359Z 3014/3112 30010G20KT 5SM -SHSN SCT015 OVC035
      TEMPO 3014/3016 1SM -SN BKN010
     FM301700 30020G32KT P6SM BKN028
     FM302200 30015G25KT P6SM SCT030
     FM310400 29010G20KT P6SM SKC=

USA.gov is the U.S. government's official web portal to all federal, state and local government web resources and services.